sensor_id;sensor_type;location;lat;lon;timestamp;P1;durP1;ratioP1;P2;durP2;ratioP2
23388;SDS011;11867;51.198;11.966;2024-01-27T00:00:39;7.80;;;1.27;;
23388;SDS011;11867;51.198;11.966;2024-01-27T00:11:26;11.30;;;1.30;;
23388;SDS011;11867;51.198;11.966;2024-01-27T00:16:50;11.38;;;1.40;;
23388;SDS011;11867;51.198;11.966;2024-01-27T00:22:13;12.00;;;1.40;;
23388;SDS011;11867;51.198;11.966;2024-01-27T00:27:36;8.48;;;1.25;;
23388;SDS011;11867;51.198;11.966;2024-01-27T00:33:00;9.15;;;1.17;;
23388;SDS011;11867;51.198;11.966;2024-01-27T00:38:23;7.18;;;0.93;;
23388;SDS011;11867;51.198;11.966;2024-01-27T00:43:47;9.70;;;1.42;;
23388;SDS011;11867;51.198;11.966;2024-01-27T00:49:11;7.82;;;0.93;;
23388;SDS011;11867;51.198;11.966;2024-01-27T00:54:34;10.82;;;1.40;;
23388;SDS011;11867;51.198;11.966;2024-01-27T00:59:57;11.02;;;2.10;;
23388;SDS011;11867;51.198;11.966;2024-01-27T01:05:21;8.27;;;1.50;;
23388;SDS011;11867;51.198;11.966;2024-01-27T01:10:44;6.70;;;1.33;;
23388;SDS011;11867;51.198;11.966;2024-01-27T01:16:08;7.13;;;1.67;;
23388;SDS011;11867;51.198;11.966;2024-01-27T01:21:32;7.45;;;1.48;;
23388;SDS011;11867;51.198;11.966;2024-01-27T01:26:55;5.00;;;1.20;;
23388;SDS011;11867;51.198;11.966;2024-01-27T01:32:18;9.90;;;1.83;;
23388;SDS011;11867;51.198;11.966;2024-01-27T01:37:42;7.53;;;1.70;;
23388;SDS011;11867;51.198;11.966;2024-01-27T01:43:08;7.85;;;0.93;;
23388;SDS011;11867;51.198;11.966;2024-01-27T01:48:32;11.10;;;1.85;;
23388;SDS011;11867;51.198;11.966;2024-01-27T01:53:57;10.82;;;1.40;;
23388;SDS011;11867;51.198;11.966;2024-01-27T01:59:21;10.80;;;2.20;;
23388;SDS011;11867;51.198;11.966;2024-01-27T02:04:45;6.70;;;1.40;;
23388;SDS011;11867;51.198;11.966;2024-01-27T02:10:12;9.50;;;1.13;;
23388;SDS011;11867;51.198;11.966;2024-01-27T02:15:36;9.15;;;1.65;;
23388;SDS011;11867;51.198;11.966;2024-01-27T02:20:58;11.80;;;1.95;;
23388;SDS011;11867;51.198;11.966;2024-01-27T02:26:23;11.73;;;2.13;;
23388;SDS011;11867;51.198;11.966;2024-01-27T02:31:46;10.02;;;1.50;;
23388;SDS011;11867;51.198;11.966;2024-01-27T02:37:09;8.95;;;1.63;;
23388;SDS011;11867;51.198;11.966;2024-01-27T02:42:33;13.27;;;1.85;;
23388;SDS011;11867;51.198;11.966;2024-01-27T02:47:56;10.85;;;1.30;;
23388;SDS011;11867;51.198;11.966;2024-01-27T02:53:19;13.00;;;1.77;;
23388;SDS011;11867;51.198;11.966;2024-01-27T02:58:43;13.25;;;1.80;;
23388;SDS011;11867;51.198;11.966;2024-01-27T03:04:06;8.88;;;1.27;;
23388;SDS011;11867;51.198;11.966;2024-01-27T03:09:29;11.88;;;1.50;;
23388;SDS011;11867;51.198;11.966;2024-01-27T03:14:53;6.97;;;1.60;;
23388;SDS011;11867;51.198;11.966;2024-01-27T03:20:16;8.30;;;1.50;;
23388;SDS011;11867;51.198;11.966;2024-01-27T03:25:39;11.85;;;1.80;;
23388;SDS011;11867;51.198;11.966;2024-01-27T03:31:04;9.75;;;1.70;;
23388;SDS011;11867;51.198;11.966;2024-01-27T03:36:26;7.18;;;1.27;;
23388;SDS011;11867;51.198;11.966;2024-01-27T03:41:50;11.52;;;1.75;;
23388;SDS011;11867;51.198;11.966;2024-01-27T03:47:14;15.73;;;2.10;;
23388;SDS011;11867;51.198;11.966;2024-01-27T03:52:37;9.32;;;1.40;;
23388;SDS011;11867;51.198;11.966;2024-01-27T03:58:00;11.38;;;1.95;;
23388;SDS011;11867;51.198;11.966;2024-01-27T04:03:24;9.02;;;1.73;;
23388;SDS011;11867;51.198;11.966;2024-01-27T04:08:47;10.10;;;1.33;;
23388;SDS011;11867;51.198;11.966;2024-01-27T04:14:10;9.10;;;1.48;;
23388;SDS011;11867;51.198;11.966;2024-01-27T04:19:34;10.20;;;1.83;;
23388;SDS011;11867;51.198;11.966;2024-01-27T04:24:57;10.27;;;1.75;;
23388;SDS011;11867;51.198;11.966;2024-01-27T04:30:20;10.43;;;2.00;;
23388;SDS011;11867;51.198;11.966;2024-01-27T04:35:45;10.45;;;1.67;;
23388;SDS011;11867;51.198;11.966;2024-01-27T04:41:08;14.55;;;1.60;;
23388;SDS011;11867;51.198;11.966;2024-01-27T04:46:31;10.23;;;1.83;;
23388;SDS011;11867;51.198;11.966;2024-01-27T04:51:55;20.17;;;2.08;;
23388;SDS011;11867;51.198;11.966;2024-01-27T04:57:20;8.30;;;1.70;;
23388;SDS011;11867;51.198;11.966;2024-01-27T05:02:44;8.82;;;1.83;;
23388;SDS011;11867;51.198;11.966;2024-01-27T05:08:11;12.50;;;1.63;;
23388;SDS011;11867;51.198;11.966;2024-01-27T05:13:34;9.40;;;1.88;;
23388;SDS011;11867;51.198;11.966;2024-01-27T05:18:57;15.30;;;1.85;;
23388;SDS011;11867;51.198;11.966;2024-01-27T05:24:21;10.45;;;1.75;;
23388;SDS011;11867;51.198;11.966;2024-01-27T05:29:44;8.52;;;1.85;;
23388;SDS011;11867;51.198;11.966;2024-01-27T05:35:07;11.63;;;2.85;;
23388;SDS011;11867;51.198;11.966;2024-01-27T05:40:35;9.45;;;1.60;;
23388;SDS011;11867;51.198;11.966;2024-01-27T05:52:44;16.67;;;2.15;;
23388;SDS011;11867;51.198;11.966;2024-01-27T05:58:08;13.60;;;1.75;;
23388;SDS011;11867;51.198;11.966;2024-01-27T06:03:31;8.65;;;1.40;;
23388;SDS011;11867;51.198;11.966;2024-01-27T06:08:55;8.43;;;1.60;;
23388;SDS011;11867;51.198;11.966;2024-01-27T06:14:19;14.25;;;1.77;;
23388;SDS011;11867;51.198;11.966;2024-01-27T06:19:42;10.25;;;1.45;;
23388;SDS011;11867;51.198;11.966;2024-01-27T06:25:05;9.77;;;1.98;;
23388;SDS011;11867;51.198;11.966;2024-01-27T06:30:32;11.63;;;1.83;;
23388;SDS011;11867;51.198;11.966;2024-01-27T06:35:55;13.85;;;1.90;;
23388;SDS011;11867;51.198;11.966;2024-01-27T06:41:18;9.50;;;1.77;;
23388;SDS011;11867;51.198;11.966;2024-01-27T06:46:42;7.35;;;2.22;;
23388;SDS011;11867;51.198;11.966;2024-01-27T06:52:07;8.55;;;2.15;;
23388;SDS011;11867;51.198;11.966;2024-01-27T06:57:30;11.05;;;2.10;;
23388;SDS011;11867;51.198;11.966;2024-01-27T07:02:54;11.32;;;2.10;;
23388;SDS011;11867;51.198;11.966;2024-01-27T07:08:20;15.85;;;2.85;;
23388;SDS011;11867;51.198;11.966;2024-01-27T07:13:43;17.83;;;2.78;;
23388;SDS011;11867;51.198;11.966;2024-01-27T07:19:07;10.80;;;2.25;;
23388;SDS011;11867;51.198;11.966;2024-01-27T07:29:54;9.32;;;1.90;;
23388;SDS011;11867;51.198;11.966;2024-01-27T07:35:18;18.33;;;2.47;;
23388;SDS011;11867;51.198;11.966;2024-01-27T07:40:41;13.57;;;2.20;;
23388;SDS011;11867;51.198;11.966;2024-01-27T07:46:04;15.60;;;2.13;;
23388;SDS011;11867;51.198;11.966;2024-01-27T07:51:28;11.73;;;2.38;;
23388;SDS011;11867;51.198;11.966;2024-01-27T07:56:51;10.15;;;1.85;;
23388;SDS011;11867;51.198;11.966;2024-01-27T08:02:14;12.02;;;2.30;;
23388;SDS011;11867;51.198;11.966;2024-01-27T08:07:38;12.13;;;2.95;;
23388;SDS011;11867;51.198;11.966;2024-01-27T08:13:01;13.15;;;1.88;;
23388;SDS011;11867;51.198;11.966;2024-01-27T08:18:24;11.15;;;2.70;;
23388;SDS011;11867;51.198;11.966;2024-01-27T08:23:48;11.20;;;2.80;;
23388;SDS011;11867;51.198;11.966;2024-01-27T08:29:11;14.32;;;2.20;;
23388;SDS011;11867;51.198;11.966;2024-01-27T08:34:34;10.20;;;2.92;;
23388;SDS011;11867;51.198;11.966;2024-01-27T08:39:59;17.45;;;2.97;;
23388;SDS011;11867;51.198;11.966;2024-01-27T08:45:21;12.32;;;1.92;;
23388;SDS011;11867;51.198;11.966;2024-01-27T08:50:48;11.93;;;2.35;;
23388;SDS011;11867;51.198;11.966;2024-01-27T08:56:13;7.72;;;2.25;;
23388;SDS011;11867;51.198;11.966;2024-01-27T09:01:36;16.25;;;2.85;;
23388;SDS011;11867;51.198;11.966;2024-01-27T09:06:59;11.73;;;2.85;;
23388;SDS011;11867;51.198;11.966;2024-01-27T09:12:24;13.82;;;2.55;;
23388;SDS011;11867;51.198;11.966;2024-01-27T09:17:47;7.82;;;2.20;;
23388;SDS011;11867;51.198;11.966;2024-01-27T09:23:10;12.98;;;2.33;;
23388;SDS011;11867;51.198;11.966;2024-01-27T09:28:36;15.43;;;3.35;;
23388;SDS011;11867;51.198;11.966;2024-01-27T09:34:00;13.38;;;3.13;;
23388;SDS011;11867;51.198;11.966;2024-01-27T09:39:23;12.25;;;2.75;;
23388;SDS011;11867;51.198;11.966;2024-01-27T09:44:48;15.13;;;3.15;;
23388;SDS011;11867;51.198;11.966;2024-01-27T09:50:12;11.20;;;2.85;;
23388;SDS011;11867;51.198;11.966;2024-01-27T09:55:36;12.90;;;2.60;;
23388;SDS011;11867;51.198;11.966;2024-01-27T10:01:00;14.00;;;2.70;;
23388;SDS011;11867;51.198;11.966;2024-01-27T10:11:47;14.02;;;2.85;;
23388;SDS011;11867;51.198;11.966;2024-01-27T10:17:19;14.38;;;3.65;;
23388;SDS011;11867;51.198;11.966;2024-01-27T10:22:42;14.68;;;2.95;;
23388;SDS011;11867;51.198;11.966;2024-01-27T10:28:07;13.70;;;2.03;;
23388;SDS011;11867;51.198;11.966;2024-01-27T10:33:31;9.30;;;2.92;;
23388;SDS011;11867;51.198;11.966;2024-01-27T10:38:54;12.75;;;3.22;;
23388;SDS011;11867;51.198;11.966;2024-01-27T10:44:18;16.10;;;3.97;;
23388;SDS011;11867;51.198;11.966;2024-01-27T10:49:43;9.93;;;2.55;;
23388;SDS011;11867;51.198;11.966;2024-01-27T10:55:09;9.07;;;2.85;;
23388;SDS011;11867;51.198;11.966;2024-01-27T11:00:32;13.27;;;3.03;;
23388;SDS011;11867;51.198;11.966;2024-01-27T11:05:58;10.70;;;3.20;;
23388;SDS011;11867;51.198;11.966;2024-01-27T11:11:22;9.32;;;2.90;;
23388;SDS011;11867;51.198;11.966;2024-01-27T11:16:46;9.50;;;2.63;;
23388;SDS011;11867;51.198;11.966;2024-01-27T11:22:22;16.13;;;3.67;;
23388;SDS011;11867;51.198;11.966;2024-01-27T11:27:50;11.70;;;3.05;;
23388;SDS011;11867;51.198;11.966;2024-01-27T11:33:14;13.32;;;3.15;;
23388;SDS011;11867;51.198;11.966;2024-01-27T11:38:39;12.60;;;3.20;;
23388;SDS011;11867;51.198;11.966;2024-01-27T11:44:03;9.85;;;3.17;;
23388;SDS011;11867;51.198;11.966;2024-01-27T11:49:26;13.63;;;3.38;;
23388;SDS011;11867;51.198;11.966;2024-01-27T11:54:54;9.13;;;2.87;;
23388;SDS011;11867;51.198;11.966;2024-01-27T12:00:18;12.50;;;3.05;;
23388;SDS011;11867;51.198;11.966;2024-01-27T12:05:41;9.38;;;3.35;;
23388;SDS011;11867;51.198;11.966;2024-01-27T12:11:05;12.63;;;3.33;;
23388;SDS011;11867;51.198;11.966;2024-01-27T12:16:29;9.65;;;2.40;;
23388;SDS011;11867;51.198;11.966;2024-01-27T12:21:52;8.60;;;2.75;;
23388;SDS011;11867;51.198;11.966;2024-01-27T12:27:16;12.00;;;2.83;;
23388;SDS011;11867;51.198;11.966;2024-01-27T12:32:39;10.93;;;3.05;;
23388;SDS011;11867;51.198;11.966;2024-01-27T12:38:03;13.02;;;2.90;;
23388;SDS011;11867;51.198;11.966;2024-01-27T12:43:29;8.20;;;2.60;;
23388;SDS011;11867;51.198;11.966;2024-01-27T12:54:15;9.68;;;2.75;;
23388;SDS011;11867;51.198;11.966;2024-01-27T12:59:39;10.40;;;2.58;;
23388;SDS011;11867;51.198;11.966;2024-01-27T13:05:03;9.95;;;3.75;;
23388;SDS011;11867;51.198;11.966;2024-01-27T13:10:26;10.07;;;3.20;;
23388;SDS011;11867;51.198;11.966;2024-01-27T13:15:52;6.97;;;2.50;;
23388;SDS011;11867;51.198;11.966;2024-01-27T13:21:15;13.30;;;2.75;;
23388;SDS011;11867;51.198;11.966;2024-01-27T13:26:38;11.73;;;2.85;;
23388;SDS011;11867;51.198;11.966;2024-01-27T13:32:03;9.40;;;2.47;;
23388;SDS011;11867;51.198;11.966;2024-01-27T13:37:27;11.07;;;2.50;;
23388;SDS011;11867;51.198;11.966;2024-01-27T13:42:55;7.60;;;2.20;;
23388;SDS011;11867;51.198;11.966;2024-01-27T13:48:20;11.30;;;2.70;;
23388;SDS011;11867;51.198;11.966;2024-01-27T13:53:43;7.05;;;2.35;;
23388;SDS011;11867;51.198;11.966;2024-01-27T13:59:08;12.50;;;2.90;;
23388;SDS011;11867;51.198;11.966;2024-01-27T14:04:33;11.80;;;2.72;;
23388;SDS011;11867;51.198;11.966;2024-01-27T14:15:19;9.68;;;2.53;;
23388;SDS011;11867;51.198;11.966;2024-01-27T14:20:44;9.60;;;2.57;;
23388;SDS011;11867;51.198;11.966;2024-01-27T14:26:07;8.32;;;2.13;;
23388;SDS011;11867;51.198;11.966;2024-01-27T14:31:37;9.15;;;2.30;;
23388;SDS011;11867;51.198;11.966;2024-01-27T14:37:01;11.63;;;2.30;;
23388;SDS011;11867;51.198;11.966;2024-01-27T14:42:24;13.80;;;2.80;;
23388;SDS011;11867;51.198;11.966;2024-01-27T14:47:48;6.97;;;2.25;;
23388;SDS011;11867;51.198;11.966;2024-01-27T14:53:16;10.13;;;2.95;;
23388;SDS011;11867;51.198;11.966;2024-01-27T14:58:39;7.93;;;1.95;;
23388;SDS011;11867;51.198;11.966;2024-01-27T15:04:02;13.00;;;2.95;;
23388;SDS011;11867;51.198;11.966;2024-01-27T15:09:27;15.50;;;3.70;;
23388;SDS011;11867;51.198;11.966;2024-01-27T15:14:50;8.05;;;2.17;;
23388;SDS011;11867;51.198;11.966;2024-01-27T15:20:14;11.63;;;2.72;;
23388;SDS011;11867;51.198;11.966;2024-01-27T15:25:39;11.60;;;2.65;;
23388;SDS011;11867;51.198;11.966;2024-01-27T15:31:02;4.18;;;1.52;;
23388;SDS011;11867;51.198;11.966;2024-01-27T15:36:28;13.20;;;2.63;;
23388;SDS011;11867;51.198;11.966;2024-01-27T15:41:52;9.27;;;2.15;;
23388;SDS011;11867;51.198;11.966;2024-01-27T15:47:15;7.63;;;1.95;;
23388;SDS011;11867;51.198;11.966;2024-01-27T15:52:38;9.98;;;2.90;;
23388;SDS011;11867;51.198;11.966;2024-01-27T15:58:03;9.70;;;3.15;;
23388;SDS011;11867;51.198;11.966;2024-01-27T16:03:26;6.35;;;1.85;;
23388;SDS011;11867;51.198;11.966;2024-01-27T16:08:49;13.63;;;2.53;;
23388;SDS011;11867;51.198;11.966;2024-01-27T16:14:13;10.30;;;2.60;;
23388;SDS011;11867;51.198;11.966;2024-01-27T16:19:36;6.70;;;2.35;;
23388;SDS011;11867;51.198;11.966;2024-01-27T16:24:59;14.02;;;3.47;;
23388;SDS011;11867;51.198;11.966;2024-01-27T16:30:24;16.33;;;3.92;;
23388;SDS011;11867;51.198;11.966;2024-01-27T16:35:48;14.15;;;3.67;;
23388;SDS011;11867;51.198;11.966;2024-01-27T16:41:11;10.35;;;3.25;;
23388;SDS011;11867;51.198;11.966;2024-01-27T16:46:35;17.40;;;4.00;;
23388;SDS011;11867;51.198;11.966;2024-01-27T16:51:58;11.07;;;4.22;;
23388;SDS011;11867;51.198;11.966;2024-01-27T16:57:21;11.40;;;4.82;;
23388;SDS011;11867;51.198;11.966;2024-01-27T17:02:45;15.48;;;4.88;;
23388;SDS011;11867;51.198;11.966;2024-01-27T17:08:08;12.35;;;5.43;;
23388;SDS011;11867;51.198;11.966;2024-01-27T17:13:32;17.00;;;4.20;;
23388;SDS011;11867;51.198;11.966;2024-01-27T17:18:56;11.35;;;4.57;;
23388;SDS011;11867;51.198;11.966;2024-01-27T17:24:24;15.38;;;5.47;;
23388;SDS011;11867;51.198;11.966;2024-01-27T17:29:47;18.65;;;7.47;;
23388;SDS011;11867;51.198;11.966;2024-01-27T17:35:11;16.17;;;5.50;;
23388;SDS011;11867;51.198;11.966;2024-01-27T17:40:35;9.20;;;3.83;;
23388;SDS011;11867;51.198;11.966;2024-01-27T17:45:57;14.15;;;5.03;;
23388;SDS011;11867;51.198;11.966;2024-01-27T17:51:22;17.65;;;5.25;;
23388;SDS011;11867;51.198;11.966;2024-01-27T18:02:08;13.27;;;4.47;;
23388;SDS011;11867;51.198;11.966;2024-01-27T18:07:32;13.38;;;5.20;;
23388;SDS011;11867;51.198;11.966;2024-01-27T18:12:55;11.85;;;3.88;;
23388;SDS011;11867;51.198;11.966;2024-01-27T18:18:18;14.65;;;5.85;;
23388;SDS011;11867;51.198;11.966;2024-01-27T18:23:43;19.02;;;6.28;;
23388;SDS011;11867;51.198;11.966;2024-01-27T18:29:07;13.38;;;6.03;;
23388;SDS011;11867;51.198;11.966;2024-01-27T18:34:30;16.25;;;6.70;;
23388;SDS011;11867;51.198;11.966;2024-01-27T18:39:54;14.10;;;6.28;;
23388;SDS011;11867;51.198;11.966;2024-01-27T18:45:21;15.45;;;6.82;;
23388;SDS011;11867;51.198;11.966;2024-01-27T18:50:44;18.48;;;7.15;;
23388;SDS011;11867;51.198;11.966;2024-01-27T18:56:10;17.83;;;7.55;;
23388;SDS011;11867;51.198;11.966;2024-01-27T19:01:34;15.43;;;6.45;;
23388;SDS011;11867;51.198;11.966;2024-01-27T19:06:58;15.40;;;7.07;;
23388;SDS011;11867;51.198;11.966;2024-01-27T19:12:22;16.42;;;6.30;;
23388;SDS011;11867;51.198;11.966;2024-01-27T19:23:08;21.05;;;6.68;;
23388;SDS011;11867;51.198;11.966;2024-01-27T19:28:33;17.42;;;6.93;;
23388;SDS011;11867;51.198;11.966;2024-01-27T19:33:56;11.60;;;4.82;;
23388;SDS011;11867;51.198;11.966;2024-01-27T19:39:19;17.50;;;5.75;;
23388;SDS011;11867;51.198;11.966;2024-01-27T19:44:44;17.25;;;7.75;;
23388;SDS011;11867;51.198;11.966;2024-01-27T19:50:07;10.75;;;5.10;;
23388;SDS011;11867;51.198;11.966;2024-01-27T19:55:31;15.82;;;5.78;;
23388;SDS011;11867;51.198;11.966;2024-01-27T20:00:55;17.52;;;6.85;;
23388;SDS011;11867;51.198;11.966;2024-01-27T20:06:18;13.98;;;5.18;;
23388;SDS011;11867;51.198;11.966;2024-01-27T20:11:41;21.63;;;7.95;;
23388;SDS011;11867;51.198;11.966;2024-01-27T20:17:05;15.52;;;7.45;;
23388;SDS011;11867;51.198;11.966;2024-01-27T20:22:28;14.40;;;7.32;;
23388;SDS011;11867;51.198;11.966;2024-01-27T20:27:51;19.67;;;7.20;;
23388;SDS011;11867;51.198;11.966;2024-01-27T20:33:16;19.35;;;8.30;;
23388;SDS011;11867;51.198;11.966;2024-01-27T20:38:55;17.52;;;6.70;;
23388;SDS011;11867;51.198;11.966;2024-01-27T20:44:18;15.68;;;5.97;;
23388;SDS011;11867;51.198;11.966;2024-01-27T20:49:43;22.02;;;7.65;;
23388;SDS011;11867;51.198;11.966;2024-01-27T20:55:07;17.90;;;7.93;;
23388;SDS011;11867;51.198;11.966;2024-01-27T21:00:31;17.45;;;7.97;;
23388;SDS011;11867;51.198;11.966;2024-01-27T21:05:55;19.38;;;10.20;;
23388;SDS011;11867;51.198;11.966;2024-01-27T21:11:18;13.63;;;6.45;;
23388;SDS011;11867;51.198;11.966;2024-01-27T21:16:41;15.77;;;7.78;;
23388;SDS011;11867;51.198;11.966;2024-01-27T21:22:05;16.05;;;7.93;;
23388;SDS011;11867;51.198;11.966;2024-01-27T21:27:28;13.90;;;5.90;;
23388;SDS011;11867;51.198;11.966;2024-01-27T21:32:51;20.00;;;7.68;;
23388;SDS011;11867;51.198;11.966;2024-01-27T21:38:18;17.25;;;7.32;;
23388;SDS011;11867;51.198;11.966;2024-01-27T21:43:43;11.32;;;5.30;;
23388;SDS011;11867;51.198;11.966;2024-01-27T21:54:30;20.27;;;6.78;;
23388;SDS011;11867;51.198;11.966;2024-01-27T21:59:53;13.68;;;5.45;;
23388;SDS011;11867;51.198;11.966;2024-01-27T22:05:16;16.25;;;6.40;;
23388;SDS011;11867;51.198;11.966;2024-01-27T22:10:41;14.55;;;6.07;;
23388;SDS011;11867;51.198;11.966;2024-01-27T22:16:04;10.10;;;4.63;;
23388;SDS011;11867;51.198;11.966;2024-01-27T22:21:27;11.88;;;5.13;;
23388;SDS011;11867;51.198;11.966;2024-01-27T22:26:55;12.63;;;5.60;;
23388;SDS011;11867;51.198;11.966;2024-01-27T22:32:18;10.05;;;4.63;;
23388;SDS011;11867;51.198;11.966;2024-01-27T22:37:40;11.15;;;6.07;;
23388;SDS011;11867;51.198;11.966;2024-01-27T22:43:05;13.23;;;5.93;;
23388;SDS011;11867;51.198;11.966;2024-01-27T22:48:30;10.65;;;4.38;;
23388;SDS011;11867;51.198;11.966;2024-01-27T22:53:54;18.38;;;5.97;;
23388;SDS011;11867;51.198;11.966;2024-01-27T22:59:18;15.35;;;6.20;;
23388;SDS011;11867;51.198;11.966;2024-01-27T23:04:41;12.27;;;4.50;;
23388;SDS011;11867;51.198;11.966;2024-01-27T23:10:05;14.80;;;6.00;;
23388;SDS011;11867;51.198;11.966;2024-01-27T23:15:29;10.43;;;4.87;;
23388;SDS011;11867;51.198;11.966;2024-01-27T23:20:52;13.30;;;5.15;;
23388;SDS011;11867;51.198;11.966;2024-01-27T23:26:15;11.43;;;6.03;;
23388;SDS011;11867;51.198;11.966;2024-01-27T23:31:39;16.65;;;6.25;;
23388;SDS011;11867;51.198;11.966;2024-01-27T23:37:03;6.30;;;4.07;;
23388;SDS011;11867;51.198;11.966;2024-01-27T23:42:25;10.55;;;5.32;;
23388;SDS011;11867;51.198;11.966;2024-01-27T23:47:51;8.97;;;4.13;;
23388;SDS011;11867;51.198;11.966;2024-01-27T23:53:15;11.43;;;5.22;;
23388;SDS011;11867;51.198;11.966;2024-01-27T23:58:42;12.65;;;5.40;;
